Tattenhall, United Kingdom
Current Conditions -  °F | °C
As of 8:50 PM on Thursday 20 Nov 2014 (Local Time) from EGNR Reporting Station
Haze Haze  
Wind Chill: 43°   Ceiling: 2500
Heat Index: 43°   Visibility: 3mi
Dew Point: 41°   Wind: 3mph
Humidity: 93%   Direction: 150°SSE
Pressure: 30.27"   Gusts: NA
Location:  53.12°N, 2.77°W
Report Text: EGNR 202050Z 15003KT 5000 HZ BKN025 06/05 Q1025
Loading
Personal Weather Stations






























Interactive Weather Map New forecast layout! Learn more

10-Day Weather Forecast

Advertisements
Track Severe Weather on mobile